Stations météo

réclame
Mon MeteoGroup
Rodkallen, Suède (2188): Température de l'air & dewpoint: 13.06.2018 20:00:00 - 19.06.2018 20:00:00 (CEST)Rodkallen, Suède (2188): Vitesse du vent & gusts: 13.06.2018 20:00:00 - 19.06.2018 20:00:00 (CEST)Rodkallen, Suède (2188): Direction du vent: 13.06.2018 20:00:00 - 19.06.2018 20:00:00 (CEST)Rodkallen, Suède (2188): visibility: 13.06.2018 20:00:00 - 19.06.2018 20:00:00 (CEST)Rodkallen, Suède (2188): Quantités de précipitations: 13.06.2018 20:00:00 - 19.06.2018 20:00:00 (CEST)
Date & Time tt [°C] td [°C] ff [km/h] ff [knt] fx [km/h] fx [knt] dd vv [km] rr [mm]
19.06.2018 20:00:00 9,2 9,0 23 13 31 17 W 10 0,1
19.06.2018 19:00:00 8,9 8,6 14 8 27 15 S 6 0,1
19.06.2018 18:00:00 9,2 8,7 16 9 31 17 SE 17 0,2
19.06.2018 17:00:00 9,3 9,0 23 12 31 17 SE 13 1,9
19.06.2018 16:00:00 9,3 9,0 21 11 37 20 SSE 12 0,1
19.06.2018 15:00:00 9,5 9,2 25 14 39 21 SSE 9 0,4
19.06.2018 14:00:00 9,8 9,5 28 15 40 22 SSE 7 0,7
19.06.2018 13:00:00 9,7 9,4 31 17 40 22 SE 6 1,8
19.06.2018 12:00:00 9,8 9,5 32 18 42 23 SE 9 0,5
19.06.2018 11:00:00 9,5 9,0 28 15 42 23 SE 4,7 2,7
19.06.2018 10:00:00 9,8 8,6 28 15 35 19 SE 26 0,0
19.06.2018 09:00:00 9,8 8,7 29 16 39 21 SE 33 0,0
19.06.2018 08:00:00 9,6 8,5 28 15 39 21 SSE 28 0,0
19.06.2018 07:00:00 9,5 8,4 28 15 37 20 SSE 26 0,0
19.06.2018 06:00:00 9,6 8,5 29 16 37 20 SSE 22 0,0
19.06.2018 05:00:00 9,7 8,8 28 15 34 19 SSE 25 0,0
19.06.2018 04:00:00 9,2 8,6 26 14 32 18 SSE 17 0,0
19.06.2018 03:00:00 9,1 8,7 28 15 34 18 S 14 0,0
19.06.2018 02:00:00 9,0 8,6 29 16 34 18 S 12 0,0
19.06.2018 01:00:00 - - - - - - - - -
19.06.2018 00:00:00 9,5 8,6 22 12 33 18 S 25 0,0
18.06.2018 23:00:00 9,7 8,8 28 15 34 18 S 26 0,0
18.06.2018 22:00:00 9,5 8,7 29 16 36 19 S 21 0,0
18.06.2018 21:00:00 9,5 8,6 27 15 36 19 S 25 0,0
18.06.2018 20:00:00 9,8 8,7 28 15 39 21 S 19 0,0
18.06.2018 19:00:00 10,0 8,8 31 17 46 25 S 19 0,0
18.06.2018 18:00:00 10,1 8,9 35 19 50 27 S 20 0,0
18.06.2018 17:00:00 10,3 9,2 39 21 54 29 S 15 0,0
18.06.2018 16:00:00 10,0 9,2 44 24 56 30 S 11 0,0
18.06.2018 15:00:00 10,6 9,7 45 25 58 32 S 11 0,0
18.06.2018 14:00:00 10,9 9,5 45 24 58 32 S 19 0,0
18.06.2018 13:00:00 10,7 9,9 37 20 45 24 S 8 0,0
18.06.2018 12:00:00 11,4 10,5 34 18 43 23 SSE 16 0,2
18.06.2018 11:00:00 10,6 10,4 23 12 31 17 ESE 13 3,0
18.06.2018 10:00:00 10,8 10,5 20 11 24 13 E 6 2,0
18.06.2018 09:00:00 10,3 9,7 16 9 22 12 ESE 8 4,8
18.06.2018 08:00:00 11,2 8,6 11 6 19 10 ESE 24 0,2
18.06.2018 07:00:00 10,4 8,7 9 5 40 21 ENE 23 0,3
18.06.2018 06:00:00 11,5 8,5 16 8 44 24 SSW 28 0,8
18.06.2018 05:00:00 11,5 8,4 32 17 44 24 ESE 29 0,0
18.06.2018 04:00:00 12,0 7,9 28 15 39 21 E 50 0,0
18.06.2018 03:00:00 12,6 7,1 30 16 36 19 ENE 50 0,0
18.06.2018 02:00:00 12,4 7,9 27 14 31 17 ENE 50 0,0
18.06.2018 01:00:00 12,6 8,3 23 12 27 14 ENE 50 0,0
18.06.2018 00:00:00 - - - - 21 11 - - -
17.06.2018 23:00:00 13,0 9,6 14 8 19 10 ENE 50 0,0
17.06.2018 22:00:00 13,2 9,6 14 7 19 10 ENE 50 0,0
17.06.2018 21:00:00 13,6 9,4 13 7 15 8 ENE 50 0,0
17.06.2018 20:00:00 13,7 9,3 12 7 15 8 ENE 50 0,0
17.06.2018 19:00:00 13,9 8,9 10 5 14 8 E 29 0,0
17.06.2018 18:00:00 13,5 9,4 10 5 15 8 ENE 34 0,0
17.06.2018 17:00:00 14,2 8,2 11 6 16 9 E 35 0,0
17.06.2018 16:00:00 14,2 7,9 12 6 16 9 E 35 0,0
17.06.2018 15:00:00 14,4 7,3 11 6 14 8 E 36 0,0
17.06.2018 14:00:00 14,2 8,6 9 5 12 6 ENE 48 0,0
17.06.2018 13:00:00 15,3 4,6 8 5 12 6 E 36 0,0
17.06.2018 12:00:00 15,2 4,8 9 5 12 6 E 41 0,0
17.06.2018 11:00:00 15,0 4,7 6 3 13 7 E 38 0,0
17.06.2018 10:00:00 14,9 4,9 6 3 16 8 ENE 37 0,0
17.06.2018 09:00:00 15,3 4,1 10 5 16 8 N 44 0,0
17.06.2018 08:00:00 14,4 5,2 9 5 15 8 NNW 31 0,0
17.06.2018 07:00:00 14,0 6,8 9 5 15 8 NW 38 0,0
17.06.2018 06:00:00 11,2 8,1 8 5 12 7 WNW 42 0,0
17.06.2018 05:00:00 10,4 8,2 10 5 12 7 WNW 48 0,0
17.06.2018 04:00:00 9,9 8,3 9 5 15 8 WNW 46 0,0
17.06.2018 03:00:00 9,7 8,3 8 4 18 10 WNW 42 0,0
17.06.2018 02:00:00 9,7 8,5 16 8 22 12 W 50 0,0
17.06.2018 01:00:00 9,7 8,1 16 8 22 12 WSW 45 0,0
17.06.2018 00:00:00 9,7 8,0 16 9 23 12 SW 41 0,0
16.06.2018 23:00:00 9,6 7,9 18 10 23 13 SSW 32 0,0
16.06.2018 22:00:00 9,7 7,6 19 10 24 13 SSW 44 0,0
16.06.2018 21:00:00 10,1 7,7 21 11 26 14 SSW 30 0,0
16.06.2018 20:00:00 10,4 7,8 23 12 26 14 S 41 0,0
16.06.2018 19:00:00 10,5 7,9 18 10 22 12 SSE 39 0,0
16.06.2018 18:00:00 10,6 7,8 14 8 32 17 SSE 47 0,0
16.06.2018 17:00:00 14,1 7,2 17 9 42 23 W 50 0,0
16.06.2018 16:00:00 10,6 7,8 22 12 42 23 SSW 32 0,0
16.06.2018 15:00:00 12,4 7,9 17 9 29 16 WSW 34 0,0
16.06.2018 14:00:00 11,6 7,9 16 9 23 13 S 29 0,0
16.06.2018 13:00:00 11,1 8,3 18 10 23 13 S 36 0,0
16.06.2018 12:00:00 10,3 8,2 17 9 20 11 S 38 0,0
16.06.2018 11:00:00 9,7 8,0 12 7 15 8 SSE 32 0,0
16.06.2018 10:00:00 10,2 8,5 7 4 14 8 SSE 27 0,0
16.06.2018 09:00:00 10,2 8,6 10 5 22 12 SSE 30 0,0
16.06.2018 08:00:00 9,6 8,2 9 5 24 13 SSE 28 0,0
16.06.2018 07:00:00 10,0 8,4 16 9 24 13 SE 33 0,0
16.06.2018 06:00:00 10,5 8,8 8 4 18 10 ENE 33 0,0
16.06.2018 05:00:00 11,1 9,0 7 4 31 17 N 30 0,0
16.06.2018 04:00:00 9,5 8,3 13 7 31 17 NW 45 0,0
16.06.2018 03:00:00 8,5 7,4 9 5 21 11 S 22 0,0
16.06.2018 02:00:00 8,9 7,4 13 7 21 11 S 32 0,0
16.06.2018 01:00:00 8,5 7,3 8 4 24 13 S 16 0,0
16.06.2018 00:00:00 9,3 7,4 6 3 28 15 WSW 39 0,0
15.06.2018 23:00:00 11,0 7,9 8 4 28 15 SE 49 0,6
15.06.2018 22:00:00 8,8 7,9 20 11 26 14 SSW 14 2,3
15.06.2018 21:00:00 8,7 7,8 10 5 31 17 S 15 0,0
15.06.2018 20:00:00 8,9 8,0 18 10 38 21 SSW 10 0,4
15.06.2018 19:00:00 9,3 7,6 28 15 41 22 SSW 16 0,0
15.06.2018 18:00:00 9,8 7,7 31 17 57 31 S 18 0,0
15.06.2018 17:00:00 10,6 7,8 29 15 60 33 SSW 19 0,0
15.06.2018 16:00:00 11,2 8,1 49 26 61 33 S 20 0,0
15.06.2018 15:00:00 11,4 8,6 50 27 61 33 S 20 0,0
15.06.2018 14:00:00 11,1 8,8 44 24 61 33 SSE 21 0,0
15.06.2018 13:00:00 11,3 9,0 46 25 56 30 SSE 19 0,0
15.06.2018 12:00:00 11,2 9,1 40 22 52 28 S 18 0,0
15.06.2018 11:00:00 11,2 9,3 40 21 50 27 S 22 0,0
15.06.2018 10:00:00 10,9 8,8 39 21 50 27 SSE 27 0,0
15.06.2018 09:00:00 10,8 8,6 36 19 50 27 SSE 43 0,0
15.06.2018 08:00:00 10,8 8,7 39 21 49 26 SSE 20 0,2
15.06.2018 07:00:00 10,9 7,9 40 22 51 27 SSE 28 0,0
15.06.2018 06:00:00 10,8 8,4 34 19 57 31 SSE 37 0,0
15.06.2018 05:00:00 11,2 8,9 43 23 57 31 S 37 0,0
15.06.2018 04:00:00 11,3 8,5 47 25 57 31 S 40 0,0
15.06.2018 03:00:00 11,7 7,8 37 20 51 27 SSE 50 0,0
15.06.2018 02:00:00 12,2 7,9 36 19 44 24 SSE 50 0,0
15.06.2018 01:00:00 11,9 8,2 31 17 42 23 SSE 50 0,0
15.06.2018 00:00:00 11,7 7,4 23 13 29 16 SE 50 0,0
14.06.2018 23:00:00 11,4 6,9 23 13 32 18 SE 50 0,0
14.06.2018 22:00:00 11,5 7,0 25 14 32 18 SE 50 0,0
14.06.2018 21:00:00 11,5 7,0 24 13 29 16 ESE 50 0,0
14.06.2018 20:00:00 11,3 7,4 22 12 30 16 ESE 50 0,0
14.06.2018 19:00:00 11,6 7,1 24 13 32 18 SE 50 0,0
14.06.2018 18:00:00 11,4 7,3 23 13 32 18 SE 39 0,0
14.06.2018 17:00:00 11,2 6,9 21 12 31 17 ESE 46 0,0
14.06.2018 16:00:00 11,4 6,5 24 13 31 17 E 49 0,0
14.06.2018 15:00:00 11,5 6,8 25 13 30 16 ESE 45 0,0
14.06.2018 14:00:00 11,3 6,8 21 12 27 15 ESE 40 0,0
14.06.2018 13:00:00 10,5 6,8 21 11 26 14 ESE 43 0,0
14.06.2018 12:00:00 10,8 7,1 21 11 26 14 SE 43 0,0
14.06.2018 11:00:00 10,7 7,0 19 10 25 13 SE 43 0,0
14.06.2018 10:00:00 10,2 6,5 20 11 24 13 SE 43 0,0
14.06.2018 09:00:00 10,0 7,1 20 11 24 13 SE 42 0,0
14.06.2018 08:00:00 9,7 7,0 19 10 23 12 SE 50 0,0
14.06.2018 07:00:00 9,6 6,9 18 10 22 12 SE 50 0,0
14.06.2018 06:00:00 9,5 5,7 18 10 22 12 SE 40 0,0
14.06.2018 05:00:00 9,2 4,6 16 9 21 11 SSE 50 0,0
14.06.2018 04:00:00 9,2 5,2 16 9 21 11 SSE 50 0,0
14.06.2018 03:00:00 9,1 5,3 17 9 20 11 SSE 50 0,0
14.06.2018 02:00:00 9,2 4,0 15 8 18 10 SE 50 0,0
14.06.2018 01:00:00 9,3 4,7 14 8 17 9 SE 50 0,0
14.06.2018 00:00:00 9,3 4,9 12 7 14 8 SSE 50 0,0
13.06.2018 23:00:00 9,3 4,3 9 5 13 7 SSE 50 0,0
13.06.2018 22:00:00 9,5 5,1 7 4 11 6 S 50 0,0
13.06.2018 21:00:00 9,6 4,6 6 3 13 7 S 50 0,0
13.06.2018 20:00:00 9,8 4,8 8 4 13 7 S 50 0,0

tt = Température de l'air
td = dewpoint
ff = Vitesse du vent
fx = gusts
dd = Direction du vent
vv = visibility
rr = Quantités de précipitations

stations d'obs. à proximité